Terminal Aerodrome Forecast
Issued by NWS

Home | Current Version | Previous Version | Text Only | Print | Product List | Glossary On
Versions: 1 2 3 4 5 6 7 8 9 10 11 12
000
FTUS42 TJSJ 271900 AAA
TAFJSJ
TAF AMD
TJSJ 271915Z 2719/2818 08016G25KT P6SM VCSH SCT040 SCT070
     FM272200 09009KT P6SM FEW030
     FM281430 09017G24KT P6SM SCT035=

USA.gov is the U.S. government's official web portal to all federal, state and local government web resources and services.